Time;durP1;ratioP1;P1;durP2;ratioP2;P2;SDS_P1;SDS_P2;PMS_P1;PMS_P2;Temp;Humidity;BMP_temperature;BMP_pressure;BME280_temperature;BME280_humidity;BME280_pressure;Samples;Min_cycle;Max_cycle;Signal;HPM_P1;HPM_P2
2022/05/24 00:01:24;;;;;;;8.90;6.57;;;21.70;99.90;;;;;;5050247;28;20470;-64
2022/05/24 00:03:51;;;;;;;10.27;6.53;;;21.50;99.90;;;;;;5049500;28;20867;-64
2022/05/24 00:06:18;;;;;;;7.97;6.37;;;21.60;99.90;;;;;;5050041;28;20497;-65
2022/05/24 00:08:47;;;;;;;9.70;6.70;;;21.60;99.90;;;;;;5050222;28;20458;-65
2022/05/24 00:11:14;;;;;;;8.60;6.37;;;21.60;99.90;;;;;;5050180;28;20485;-64
2022/05/24 00:13:41;;;;;;;8.00;5.90;;;21.50;99.90;;;;;;5050243;28;20442;-64
2022/05/24 00:16:08;;;;;;;7.93;5.63;;;21.40;99.90;;;;;;5050216;28;20457;-64
2022/05/24 00:18:35;;;;;;;9.70;5.43;;;21.40;99.90;;;;;;5050062;28;20450;-64
2022/05/24 00:21:05;;;;;;;7.23;4.20;;;21.30;99.90;;;;;;5049978;28;20473;-64
2022/05/24 00:23:33;;;;;;;7.87;4.80;;;21.20;99.90;;;;;;5050087;28;20472;-64
2022/05/24 00:26:04;;;;;;;9.20;4.90;;;20.90;99.90;;;;;;5049979;28;20486;-64
2022/05/24 00:28:33;;;;;;;8.17;4.00;;;20.80;99.90;;;;;;5049915;28;20462;-64
2022/05/24 00:31:01;;;;;;;7.10;4.00;;;20.70;99.90;;;;;;5049612;28;20472;-64
2022/05/24 00:33:28;;;;;;;7.90;5.20;;;20.50;99.90;;;;;;5049784;28;20442;-64
2022/05/24 00:35:57;;;;;;;7.53;4.27;;;20.40;99.90;;;;;;5049747;28;20442;-64
2022/05/24 00:38:28;;;;;;;7.43;4.40;;;20.50;99.90;;;;;;5049835;28;20577;-64
2022/05/24 00:41:08;;;;;;;8.50;4.77;;;20.50;99.90;;;;;;5049486;28;20885;-63
2022/05/24 00:43:40;;;;;;;7.90;4.40;;;20.60;99.90;;;;;;5049456;28;20468;-63
2022/05/24 00:46:12;;;;;;;9.10;4.90;;;20.60;99.90;;;;;;5049512;28;20513;-64
2022/05/24 00:48:46;;;;;;;9.53;4.80;;;20.60;99.90;;;;;;5049486;28;21015;-64
2022/05/24 00:51:16;;;;;;;9.73;4.40;;;20.60;99.90;;;;;;5049697;28;20478;-63
2022/05/24 00:53:51;;;;;;;8.70;4.10;;;20.50;99.90;;;;;;5049690;28;20813;-62
2022/05/24 00:56:29;;;;;;;5.93;4.13;;;20.50;99.90;;;;;;5049720;28;20441;-63
2022/05/24 00:59:00;;;;;;;7.33;3.97;;;20.60;99.90;;;;;;5049143;28;20456;-64
2022/05/24 01:01:34;;;;;;;8.27;3.70;;;20.60;99.90;;;;;;5049489;28;20470;-63
2022/05/24 01:04:02;;;;;;;5.73;3.40;;;20.70;99.90;;;;;;5049541;28;20449;-63
2022/05/24 01:06:29;;;;;;;5.47;3.97;;;20.70;99.90;;;;;;5049293;28;20490;-63
2022/05/24 01:09:00;;;;;;;6.33;3.93;;;20.70;99.90;;;;;;5049289;28;20454;-63
2022/05/24 01:11:30;;;;;;;6.10;3.60;;;20.70;99.90;;;;;;5049477;28;20481;-63
2022/05/24 01:14:00;;;;;;;9.53;3.80;;;20.70;99.90;;;;;;5049361;28;20453;-63
2022/05/24 01:16:27;;;;;;;7.23;4.07;;;20.70;99.90;;;;;;5052299;28;20453;-63
2022/05/24 01:18:54;;;;;;;8.07;4.13;;;20.70;99.90;;;;;;5053124;28;20454;-63
2022/05/24 01:21:22;;;;;;;8.23;3.93;;;20.80;99.90;;;;;;5053290;28;20552;-63
2022/05/24 01:24:04;;;;;;;6.30;3.60;;;20.70;99.90;;;;;;5053352;28;20520;-63
2022/05/24 01:26:45;;;;;;;6.07;4.10;;;20.60;99.90;;;;;;5053253;28;20492;-63
2022/05/24 01:29:12;;;;;;;5.73;3.40;;;20.60;99.90;;;;;;5053322;28;20538;-64
2022/05/24 01:37:11;;;;;;;8.87;4.33;;;20.50;99.90;;;;;;5052856;28;20476;-64
2022/05/24 01:39:40;;;;;;;10.90;3.60;;;20.50;99.90;;;;;;5052859;28;20454;-63
2022/05/24 01:42:10;;;;;;;9.23;3.70;;;20.50;99.90;;;;;;5052532;28;20489;-64
2022/05/24 01:44:43;;;;;;;6.57;4.00;;;20.50;99.90;;;;;;5052980;28;20504;-64
2022/05/24 01:47:11;;;;;;;7.47;3.77;;;20.40;99.90;;;;;;5052957;28;20883;-63
2022/05/24 01:49:42;;;;;;;10.73;3.90;;;20.40;99.90;;;;;;5053072;28;20456;-64
2022/05/24 01:52:13;;;;;;;5.10;2.93;;;20.40;99.90;;;;;;5052309;28;20474;-64
2022/05/24 01:54:45;;;;;;;6.87;3.67;;;20.40;99.90;;;;;;5052818;28;20503;-64
2022/05/24 01:57:17;;;;;;;7.50;4.83;;;20.40;99.90;;;;;;5052785;28;20614;-64
2022/05/24 01:59:48;;;;;;;6.43;3.60;;;20.40;99.90;;;;;;5052933;28;20453;-63
2022/05/24 02:02:16;;;;;;;7.60;3.70;;;20.40;99.90;;;;;;5052628;28;20473;-64
2022/05/24 02:04:43;;;;;;;5.87;3.97;;;20.40;99.90;;;;;;5052651;28;20468;-64
2022/05/24 02:07:13;;;;;;;7.07;4.00;;;20.40;99.90;;;;;;5052369;28;20445;-64
2022/05/24 02:09:42;;;;;;;8.50;4.47;;;20.40;99.90;;;;;;5052428;28;20819;-64
2022/05/24 02:12:13;;;;;;;6.60;4.20;;;20.40;99.90;;;;;;5052129;28;20480;-64
2022/05/24 02:14:46;;;;;;;6.87;4.17;;;20.30;99.90;;;;;;5052498;28;20512;-64
2022/05/24 02:17:16;;;;;;;8.10;4.47;;;20.20;99.90;;;;;;5052430;28;20464;-63
2022/05/24 02:19:49;;;;;;;7.00;3.93;;;20.20;99.90;;;;;;5052288;28;20468;-64
2022/05/24 02:22:20;;;;;;;6.80;4.50;;;20.30;99.90;;;;;;5052163;28;20477;-64
2022/05/24 02:24:55;;;;;;;8.20;5.27;;;20.30;99.90;;;;;;5052195;28;20470;-64
2022/05/24 02:27:24;;;;;;;6.00;3.97;;;20.30;99.90;;;;;;5051803;28;20485;-64
2022/05/24 02:29:51;;;;;;;6.50;4.70;;;20.40;99.90;;;;;;5052133;28;20454;-63
2022/05/24 02:32:18;;;;;;;6.20;3.87;;;20.40;99.90;;;;;;5052109;28;20474;-64
2022/05/24 02:34:46;;;;;;;6.47;4.07;;;20.40;99.90;;;;;;5052212;28;20466;-64
2022/05/24 02:37:13;;;;;;;7.30;3.90;;;20.30;99.90;;;;;;5052186;28;20454;-64
2022/05/24 02:42:22;;;;;;;6.80;4.10;;;20.20;99.90;;;;;;5050685;28;20472;-63
2022/05/24 02:44:50;;;;;;;7.37;3.87;;;20.10;99.90;;;;;;5051819;28;20446;-63
2022/05/24 02:47:17;;;;;;;6.30;4.10;;;20.10;99.90;;;;;;5051761;28;20524;-64
2022/05/24 02:49:44;;;;;;;6.23;3.60;;;20.10;99.90;;;;;;5051796;28;20969;-64
2022/05/24 02:52:11;;;;;;;9.20;3.87;;;20.20;99.90;;;;;;5051815;28;20846;-64
2022/05/24 02:54:38;;;;;;;7.80;4.10;;;20.20;99.90;;;;;;5051779;28;20922;-63
2022/05/24 02:57:06;;;;;;;8.30;4.00;;;20.20;99.90;;;;;;5051253;28;20520;-64
2022/05/24 02:59:34;;;;;;;8.50;4.03;;;20.20;99.90;;;;;;5051253;28;20458;-64
2022/05/24 03:02:05;;;;;;;7.47;4.23;;;20.20;99.90;;;;;;5051429;28;20513;-63
2022/05/24 03:04:32;;;;;;;6.67;3.93;;;20.20;99.90;;;;;;5051524;28;20458;-63
2022/05/24 03:09:44;;;;;;;6.93;4.20;;;20.10;99.90;;;;;;5051141;28;20424;-63
2022/05/24 03:14:58;;;;;;;6.33;3.93;;;20.10;99.90;;;;;;5051285;28;20453;-63
2022/05/24 03:17:25;;;;;;;6.73;4.40;;;20.00;99.90;;;;;;5051302;28;20457;-64
2022/05/24 03:19:52;;;;;;;8.93;4.70;;;20.00;99.90;;;;;;5050857;28;20485;-63
2022/05/24 03:22:20;;;;;;;9.53;4.03;;;20.10;99.90;;;;;;5050771;28;20942;-63
2022/05/24 03:24:47;;;;;;;6.87;4.20;;;20.10;99.90;;;;;;5051051;28;20869;-63
2022/05/24 03:27:14;;;;;;;6.50;4.63;;;20.10;99.90;;;;;;5050961;28;20489;-64
2022/05/24 03:29:42;;;;;;;7.80;4.20;;;20.10;99.90;;;;;;5051043;28;20477;-64
2022/05/24 03:32:12;;;;;;;8.97;5.00;;;20.00;99.90;;;;;;5050924;28;20474;-63
2022/05/24 03:34:42;;;;;;;7.23;4.80;;;20.00;99.90;;;;;;5050674;28;20446;-64
2022/05/24 03:37:09;;;;;;;7.43;3.83;;;20.10;99.90;;;;;;5050475;28;20446;-63
2022/05/24 03:39:37;;;;;;;13.03;5.30;;;20.20;99.90;;;;;;5050197;28;20457;-64
2022/05/24 03:42:05;;;;;;;8.87;4.30;;;20.20;99.90;;;;;;5050342;28;20489;-64
2022/05/24 03:44:32;;;;;;;9.77;4.17;;;20.20;99.90;;;;;;5050714;28;20454;-63
2022/05/24 03:47:00;;;;;;;7.90;4.40;;;20.20;99.90;;;;;;5050274;28;20485;-64
2022/05/24 03:49:28;;;;;;;7.13;4.70;;;20.20;99.90;;;;;;5050583;28;20446;-63
2022/05/24 03:51:55;;;;;;;9.67;4.40;;;20.30;99.90;;;;;;5050511;28;20478;-64
2022/05/24 03:54:22;;;;;;;7.60;4.20;;;20.20;99.90;;;;;;5050548;28;20465;-64
2022/05/24 03:59:34;;;;;;;6.23;4.20;;;20.20;99.90;;;;;;5050261;28;20493;-64
2022/05/24 04:02:01;;;;;;;7.00;3.87;;;20.20;99.90;;;;;;5050180;28;20474;-66
2022/05/24 04:04:29;;;;;;;7.47;4.53;;;20.30;99.90;;;;;;5050261;28;20840;-63
2022/05/24 04:06:56;;;;;;;6.20;4.13;;;20.30;99.90;;;;;;5050180;28;20490;-64
2022/05/24 04:09:23;;;;;;;6.00;4.03;;;20.30;99.90;;;;;;5050271;28;20457;-63
2022/05/24 04:11:50;;;;;;;8.97;5.40;;;20.30;99.90;;;;;;5049872;28;20951;-64
2022/05/24 04:14:17;;;;;;;7.83;4.67;;;20.30;99.90;;;;;;5049947;28;20927;-64
2022/05/24 04:16:44;;;;;;;5.53;4.60;;;20.20;99.90;;;;;;5050142;28;20562;-64
2022/05/24 04:19:11;;;;;;;8.20;4.63;;;20.30;99.90;;;;;;5050122;28;20449;-64
2022/05/24 04:21:40;;;;;;;7.20;4.50;;;20.20;99.90;;;;;;5050030;28;20477;-64
2022/05/24 04:24:07;;;;;;;7.97;4.30;;;20.30;99.90;;;;;;5050049;28;20450;-64
2022/05/24 04:26:34;;;;;;;8.93;5.67;;;20.30;99.90;;;;;;5049988;28;20486;-63
2022/05/24 04:29:02;;;;;;;6.60;4.33;;;20.30;99.90;;;;;;5049668;28;21157;-63
2022/05/24 04:31:29;;;;;;;6.80;4.13;;;20.40;99.90;;;;;;5049758;28;20478;-63
2022/05/24 04:33:56;;;;;;;7.90;5.00;;;20.50;99.90;;;;;;5049942;28;20774;-64
2022/05/24 04:36:23;;;;;;;7.43;4.80;;;20.50;99.90;;;;;;5050101;28;20505;-64
2022/05/24 04:38:51;;;;;;;11.13;5.27;;;20.60;99.90;;;;;;5049909;28;20938;-64
2022/05/24 04:44:04;;;;;;;7.63;4.77;;;20.40;99.90;;;;;;5049756;28;20437;-64
2022/05/24 04:47:06;;;;;;;11.10;4.80;;;20.50;99.90;;;;;;5049692;28;20489;-64
2022/05/24 04:49:18;;;;;;;6.87;4.30;;;20.70;99.90;;;;;;5049084;28;20831;-64
2022/05/24 04:51:45;;;;;;;7.37;4.27;;;20.80;99.90;;;;;;5049630;28;20477;-65
2022/05/24 04:54:14;;;;;;;9.00;5.20;;;20.90;99.90;;;;;;5049612;28;20461;-64
2022/05/24 04:56:41;;;;;;;8.40;4.90;;;21.10;99.90;;;;;;5049535;28;20446;-66
2022/05/24 04:59:08;;;;;;;8.60;4.60;;;21.10;99.90;;;;;;5049600;28;20449;-70
2022/05/24 05:01:35;;;;;;;6.40;4.03;;;21.10;99.90;;;;;;5049066;28;20819;-65
2022/05/24 05:04:02;;;;;;;8.87;3.93;;;21.20;99.90;;;;;;5049713;28;20453;-64
2022/05/24 05:06:29;;;;;;;9.57;4.80;;;21.20;99.90;;;;;;5048923;28;20486;-64
2022/05/24 05:08:56;;;;;;;8.47;5.00;;;21.30;99.90;;;;;;5049286;28;20819;-64
2022/05/24 05:11:24;;;;;;;12.83;5.40;;;21.40;99.90;;;;;;5049257;28;20474;-64
2022/05/24 05:13:53;;;;;;;9.43;4.27;;;21.50;99.90;;;;;;5049467;28;20457;-64
2022/05/24 05:16:20;;;;;;;11.67;5.30;;;21.60;99.90;;;;;;5049375;28;20451;-64
2022/05/24 05:18:47;;;;;;;8.87;4.80;;;21.60;99.90;;;;;;5049338;28;20454;-65
2022/05/24 05:21:14;;;;;;;7.77;5.07;;;21.70;99.90;;;;;;5049272;28;20474;-65
2022/05/24 05:23:41;;;;;;;7.17;5.17;;;21.70;99.90;;;;;;5049451;28;20450;-64
2022/05/24 05:26:08;;;;;;;16.13;5.67;;;21.80;99.90;;;;;;5049405;28;20485;-63
2022/05/24 05:28:36;;;;;;;8.90;5.50;;;21.80;99.90;;;;;;5049375;28;20458;-64
2022/05/24 05:31:19;;;;;;;7.30;4.53;;;21.80;99.90;;;;;;5049239;28;20497;-65
2022/05/24 05:33:48;;;;;;;8.13;4.07;;;21.80;99.90;;;;;;5049020;28;20480;-64
2022/05/24 05:36:15;;;;;;;9.40;4.77;;;21.70;99.90;;;;;;5049146;28;20622;-65
2022/05/24 05:38:45;;;;;;;8.50;4.30;;;21.70;99.90;;;;;;5049080;28;20899;-64
2022/05/24 05:41:13;;;;;;;8.20;4.70;;;21.70;99.90;;;;;;5048735;28;20536;-64
2022/05/24 05:43:42;;;;;;;8.10;4.67;;;21.60;99.90;;;;;;5048713;28;20876;-62
2022/05/24 05:46:09;;;;;;;12.23;5.33;;;21.70;99.90;;;;;;5048734;28;20869;-69
2022/05/24 05:48:37;;;;;;;6.50;4.13;;;21.90;99.90;;;;;;5048780;28;20456;-64
2022/05/24 05:51:06;;;;;;;8.37;5.00;;;21.90;99.90;;;;;;5048783;28;20998;-69
2022/05/24 05:53:33;;;;;;;7.83;5.13;;;22.00;99.90;;;;;;5048723;28;20454;-64
2022/05/24 05:56:01;;;;;;;6.07;4.70;;;22.20;99.90;;;;;;5049041;28;20842;-67
2022/05/24 05:58:29;;;;;;;8.23;4.33;;;22.40;99.90;;;;;;5048916;28;20462;-64
2022/05/24 06:01:00;;;;;;;10.00;5.03;;;22.50;99.90;;;;;;5049310;28;20500;-67
2022/05/24 06:03:27;;;;;;;7.70;4.80;;;22.70;99.90;;;;;;5052758;28;20457;-66
2022/05/24 06:05:54;;;;;;;10.80;4.77;;;22.80;99.90;;;;;;5052629;28;20450;-67
2022/05/24 06:08:22;;;;;;;10.40;5.60;;;22.90;99.90;;;;;;5052492;28;20446;-65
2022/05/24 06:10:49;;;;;;;10.03;5.63;;;22.70;99.90;;;;;;5052166;28;20445;-66
2022/05/24 06:13:16;;;;;;;8.60;5.20;;;22.50;99.90;;;;;;5052476;28;20453;-67
2022/05/24 06:15:45;;;;;;;8.70;5.03;;;22.60;99.90;;;;;;5052302;28;20441;-64
2022/05/24 06:18:14;;;;;;;7.87;5.30;;;22.90;99.90;;;;;;5052378;28;20446;-65
2022/05/24 06:20:41;;;;;;;10.10;6.17;;;22.80;99.90;;;;;;5052280;28;20450;-65
2022/05/24 06:23:08;;;;;;;8.93;5.57;;;23.00;99.90;;;;;;5052331;28;20454;-66
2022/05/24 06:25:35;;;;;;;8.10;5.20;;;23.30;99.90;;;;;;5052316;28;20773;-65
2022/05/24 06:28:02;;;;;;;9.83;5.70;;;23.30;99.90;;;;;;5052118;28;20488;-65
2022/05/24 06:30:29;;;;;;;12.57;5.43;;;23.20;99.90;;;;;;5052099;28;20450;-65
2022/05/24 06:32:57;;;;;;;7.43;5.50;;;23.10;99.90;;;;;;5051993;28;20481;-66
2022/05/24 06:35:25;;;;;;;7.90;5.80;;;22.90;99.90;;;;;;5051751;28;20461;-67
2022/05/24 06:37:53;;;;;;;11.30;5.50;;;22.90;99.90;;;;;;5051705;28;21008;-64
2022/05/24 06:40:20;;;;;;;8.50;6.10;;;22.90;99.90;;;;;;5051627;28;20454;-66
2022/05/24 06:42:48;;;;;;;8.80;5.10;;;22.80;99.90;;;;;;5051491;28;20489;-67
2022/05/24 06:45:16;;;;;;;8.77;5.80;;;23.00;99.90;;;;;;5051748;28;20446;-65
2022/05/24 06:47:43;;;;;;;10.73;7.00;;;23.00;99.90;;;;;;5051853;28;20489;-67
2022/05/24 06:50:12;;;;;;;7.53;5.77;;;22.90;99.90;;;;;;5051460;28;20462;-67
2022/05/24 06:52:40;;;;;;;7.80;6.13;;;22.90;99.90;;;;;;5051276;28;20477;-65
2022/05/24 06:55:08;;;;;;;9.93;5.80;;;23.10;99.90;;;;;;5051491;28;20454;-68
2022/05/24 06:57:35;;;;;;;11.83;6.23;;;23.20;99.90;;;;;;5051606;28;20453;-68
2022/05/24 07:02:48;;;;;;;9.90;5.70;;;23.50;99.90;;;;;;5051778;28;20453;-68
2022/05/24 07:05:19;;;;;;;8.50;5.80;;;23.70;99.90;;;;;;5051301;28;20469;-65
2022/05/24 07:07:48;;;;;;;10.50;6.60;;;23.70;99.90;;;;;;5051065;28;20924;-65
2022/05/24 07:10:16;;;;;;;9.73;6.07;;;23.80;99.90;;;;;;5051384;28;20446;-65
2022/05/24 07:12:45;;;;;;;9.23;5.67;;;24.00;99.90;;;;;;5049932;28;20488;-65
2022/05/24 07:15:13;;;;;;;10.27;6.47;;;24.30;99.90;;;;;;5051024;28;20461;-69
2022/05/24 07:17:40;;;;;;;10.13;6.23;;;24.50;99.90;;;;;;5050940;28;20824;-68
2022/05/24 07:20:08;;;;;;;9.77;6.03;;;24.70;99.90;;;;;;5051299;28;20445;-63
2022/05/24 07:22:35;;;;;;;10.80;6.47;;;24.90;99.90;;;;;;5050576;28;20484;-64
2022/05/24 07:25:06;;;;;;;7.87;5.80;;;25.10;99.90;;;;;;5050982;28;20481;-65
2022/05/24 07:27:33;;;;;;;7.47;5.07;;;25.20;99.50;;;;;;5050400;28;20579;-66
2022/05/24 07:30:00;;;;;;;9.67;5.20;;;25.50;99.40;;;;;;5050698;28;20469;-67
2022/05/24 07:32:27;;;;;;;10.83;5.57;;;25.80;99.10;;;;;;5050714;28;20477;-69
2022/05/24 07:34:56;;;;;;;8.93;5.80;;;25.90;99.20;;;;;;5050809;28;20450;-66
2022/05/24 07:37:23;;;;;;;7.60;5.37;;;26.10;98.10;;;;;;5050636;28;20553;-65
2022/05/24 07:45:47;;;;;;;7.30;5.00;;;26.20;96.70;;;;;;5050766;28;20457;-68
2022/05/24 07:48:09;;;;;;;8.33;5.53;;;26.30;96.30;;;;;;5050697;28;20489;-65
2022/05/24 07:50:36;;;;;;;6.77;5.20;;;26.50;96.40;;;;;;5050652;28;20486;-64
2022/05/24 07:53:03;;;;;;;8.10;5.47;;;26.70;95.30;;;;;;5050641;28;20450;-65
2022/05/24 07:55:30;;;;;;;9.10;5.43;;;27.00;95.30;;;;;;5050459;28;20460;-72
2022/05/24 07:57:59;;;;;;;9.60;5.80;;;27.10;94.70;;;;;;5050533;28;20450;-70
2022/05/24 08:00:26;;;;;;;11.07;5.90;;;27.00;95.40;;;;;;5050542;28;20446;-69
2022/05/24 08:02:54;;;;;;;10.83;5.90;;;26.90;93.80;;;;;;5050340;28;20470;-70
2022/05/24 08:05:22;;;;;;;6.87;4.50;;;27.00;94.40;;;;;;5049633;28;20941;-70
2022/05/24 08:07:51;;;;;;;7.50;4.97;;;27.00;94.40;;;;;;5049880;28;20497;-71
2022/05/24 08:10:18;;;;;;;6.13;4.90;;;27.20;94.60;;;;;;5050354;28;20464;-68
2022/05/24 08:12:46;;;;;;;11.47;5.60;;;27.20;95.40;;;;;;5050169;28;20474;-65
2022/05/24 08:15:15;;;;;;;9.00;5.60;;;27.20;94.80;;;;;;5050203;28;20457;-66
2022/05/24 08:17:42;;;;;;;6.10;5.03;;;27.30;94.20;;;;;;5050299;28;20442;-66
2022/05/24 08:20:10;;;;;;;7.17;4.93;;;27.20;93.80;;;;;;5050145;28;20822;-64
2022/05/24 08:22:38;;;;;;;8.93;6.30;;;27.00;93.50;;;;;;5049572;28;21001;-67
2022/05/24 08:25:06;;;;;;;11.10;5.00;;;27.30;93.40;;;;;;5049648;28;20501;-65
2022/05/24 08:27:33;;;;;;;8.53;5.90;;;27.50;93.90;;;;;;5049808;28;20488;-68
2022/05/24 08:30:01;;;;;;;11.00;5.80;;;27.70;94.00;;;;;;5050125;28;20458;-65
2022/05/24 08:32:29;;;;;;;8.17;5.27;;;27.90;93.30;;;;;;5049923;28;20470;-64
2022/05/24 08:34:56;;;;;;;8.63;5.67;;;28.20;92.50;;;;;;5049728;28;20449;-65
2022/05/24 08:37:23;;;;;;;7.90;6.00;;;28.20;91.20;;;;;;5049734;28;20458;-65
2022/05/24 08:39:50;;;;;;;8.97;6.27;;;28.40;91.40;;;;;;5049356;28;20464;-64
2022/05/24 08:42:28;;;;;;;10.27;6.00;;;28.60;91.10;;;;;;5049146;28;20519;-64
2022/05/24 08:50:38;;;;;;;10.63;6.27;;;28.90;89.70;;;;;;5049517;28;20433;-66
2022/05/24 08:53:09;;;;;;;9.03;5.87;;;29.20;89.10;;;;;;5049657;28;20815;-63
2022/05/24 08:55:38;;;;;;;7.97;6.13;;;29.20;88.80;;;;;;5049225;28;20995;-66
2022/05/24 08:58:10;;;;;;;9.63;6.07;;;28.90;89.60;;;;;;5049540;28;20441;-64
2022/05/24 09:00:41;;;;;;;8.90;5.60;;;29.00;89.00;;;;;;5049673;28;20462;-66
2022/05/24 09:03:11;;;;;;;7.17;5.40;;;29.00;88.50;;;;;;5049515;28;20456;-66
2022/05/24 09:05:39;;;;;;;13.63;6.40;;;28.80;89.20;;;;;;5049503;28;20892;-66
2022/05/24 09:08:17;;;;;;;12.60;5.97;;;28.80;90.40;;;;;;5049310;28;20538;-65
2022/05/24 09:10:48;;;;;;;7.67;5.90;;;28.90;89.40;;;;;;5049577;28;20504;-64
2022/05/24 09:13:50;;;;;;;9.03;5.93;;;28.80;86.70;;;;;;5049234;28;20509;-64
2022/05/24 09:16:18;;;;;;;9.03;5.60;;;28.60;87.30;;;;;;5049539;28;20489;-64
2022/05/24 09:18:54;;;;;;;14.57;6.57;;;28.50;87.00;;;;;;5049349;28;20461;-63
2022/05/24 09:21:25;;;;;;;11.20;6.30;;;28.40;87.90;;;;;;5048824;28;20484;-65
2022/05/24 09:24:00;;;;;;;13.83;6.63;;;28.60;87.60;;;;;;5049243;28;20461;-65
2022/05/24 09:26:27;;;;;;;8.07;6.37;;;28.60;86.40;;;;;;5049399;28;20886;-66
2022/05/24 09:28:56;;;;;;;9.87;5.30;;;28.30;87.10;;;;;;5048901;28;20489;-65
2022/05/24 09:31:32;;;;;;;6.87;5.63;;;28.30;88.40;;;;;;5049135;28;20505;-66
2022/05/24 09:34:04;;;;;;;13.67;5.90;;;28.40;88.50;;;;;;5049363;28;20524;-65
2022/05/24 09:36:35;;;;;;;7.80;5.63;;;28.40;89.80;;;;;;5050444;28;20507;-64
2022/05/24 09:39:06;;;;;;;8.57;6.50;;;28.80;90.60;;;;;;5053037;28;20450;-64
2022/05/24 09:41:33;;;;;;;8.17;6.40;;;28.90;87.70;;;;;;5052609;28;20593;-64
2022/05/24 09:44:06;;;;;;;8.40;6.57;;;28.90;87.30;;;;;;5052786;28;20446;-65
2022/05/24 09:46:36;;;;;;;12.77;6.07;;;29.10;89.30;;;;;;5052988;28;20478;-65
2022/05/24 09:49:22;;;;;;;10.47;5.80;;;29.50;90.20;;;;;;5052781;28;20485;-64
2022/05/24 09:51:51;;;;;;;8.17;5.63;;;29.80;88.70;;;;;;5052656;28;20876;-66
2022/05/24 09:54:20;;;;;;;8.60;6.50;;;30.10;84.60;;;;;;5052796;28;20457;-65
2022/05/24 09:57:02;;;;;;;7.97;6.20;;;30.30;83.80;;;;;;5052550;28;20548;-64
2022/05/24 09:59:29;;;;;;;7.30;6.30;;;30.50;83.80;;;;;;5052687;28;20845;-64
2022/05/24 10:01:56;;;;;;;8.30;6.20;;;30.60;81.70;;;;;;5052655;28;20473;-64
2022/05/24 10:04:27;;;;;;;13.07;7.43;;;30.70;82.10;;;;;;5052448;28;20453;-63
2022/05/24 10:06:58;;;;;;;7.43;6.63;;;30.80;81.70;;;;;;5052402;28;20466;-64
2022/05/24 10:09:51;;;;;;;8.17;6.57;;;30.80;81.80;;;;;;5052639;28;20513;-63
2022/05/24 10:12:32;;;;;;;9.70;7.43;;;30.20;79.30;;;;;;5052304;28;20557;-64
2022/05/24 10:15:24;;;;;;;9.87;7.67;;;30.00;81.50;;;;;;5052456;28;20453;-64
2022/05/24 10:18:23;;;;;;;16.00;7.93;;;29.70;81.40;;;;;;5052443;28;20442;-66
2022/05/24 10:21:01;;;;;;;11.10;7.50;;;29.80;80.80;;;;;;5015722;28;20461;-63
2022/05/24 10:23:41;;;;;;;9.17;7.13;;;30.10;82.20;;;;;;5051970;28;20448;-65
2022/05/24 10:26:19;;;;;;;8.97;7.20;;;30.30;80.30;;;;;;5052181;28;20648;-65
2022/05/24 10:28:57;;;;;;;11.33;7.50;;;30.40;80.20;;;;;;5052253;28;20508;-63
2022/05/24 10:31:36;;;;;;;9.77;7.60;;;30.60;80.50;;;;;;5052174;28;20469;-63
2022/05/24 10:39:56;;;;;;;8.93;7.00;;;31.00;79.00;;;;;;5052225;28;20430;-65
2022/05/24 10:42:35;;;;;;;9.93;7.47;;;31.30;80.10;;;;;;5051653;28;20492;-64
2022/05/24 10:45:07;;;;;;;11.73;6.57;;;31.40;79.50;;;;;;5051414;28;20469;-64
2022/05/24 10:47:40;;;;;;;11.17;7.73;;;31.50;78.00;;;;;;5051082;28;20462;-66
2022/05/24 10:50:12;;;;;;;9.47;6.47;;;31.50;77.60;;;;;;5052097;28;20485;-63
2022/05/24 10:52:47;;;;;;;11.83;7.50;;;31.70;77.70;;;;;;5051569;28;20478;-63
2022/05/24 10:55:19;;;;;;;7.57;6.80;;;31.50;74.70;;;;;;5051833;28;20449;-63
2022/05/24 10:57:54;;;;;;;11.33;7.10;;;31.20;76.10;;;;;;5051723;28;20803;-64
2022/05/24 11:00:25;;;;;;;8.33;6.50;;;31.10;77.20;;;;;;5051520;28;20454;-63
2022/05/24 11:03:00;;;;;;;6.63;5.93;;;31.40;78.60;;;;;;5051304;28;20971;-65
2022/05/24 11:05:31;;;;;;;11.60;7.83;;;31.80;77.00;;;;;;5051639;28;20456;-65
2022/05/24 11:08:12;;;;;;;11.13;7.90;;;31.80;75.10;;;;;;5051444;28;20896;-66
2022/05/24 11:10:42;;;;;;;14.93;6.87;;;31.70;74.40;;;;;;5051499;28;20595;-64
2022/05/24 11:13:11;;;;;;;8.80;7.50;;;31.70;73.30;;;;;;5051024;28;20934;-65
2022/05/24 11:15:42;;;;;;;9.23;8.00;;;31.50;74.80;;;;;;5051101;28;20515;-65
2022/05/24 11:18:16;;;;;;;13.30;8.03;;;31.40;75.10;;;;;;5051109;28;20442;-65
2022/05/24 11:20:48;;;;;;;11.97;8.90;;;31.40;74.60;;;;;;5051306;28;20566;-65
2022/05/24 11:23:21;;;;;;;11.70;7.90;;;31.40;74.70;;;;;;5051344;28;20769;-65
2022/05/24 11:25:54;;;;;;;8.70;7.80;;;31.30;74.70;;;;;;5050906;28;20494;-69
2022/05/24 11:28:26;;;;;;;9.30;7.50;;;31.50;74.40;;;;;;5051031;28;20922;-69
2022/05/24 11:30:54;;;;;;;9.50;8.00;;;31.50;74.10;;;;;;5051063;28;20461;-71
2022/05/24 11:33:40;;;;;;;12.30;7.77;;;31.80;75.80;;;;;;5050917;28;20454;-68
2022/05/24 11:36:42;;;;;;;9.50;7.43;;;32.20;75.10;;;;;;5050697;28;20535;-70
2022/05/24 11:39:24;;;;;;;10.70;7.67;;;32.50;74.10;;;;;;5045602;28;20489;-68
2022/05/24 11:42:06;;;;;;;12.53;7.47;;;32.90;72.40;;;;;;5050340;28;20540;-69
2022/05/24 11:44:37;;;;;;;10.50;7.53;;;33.20;71.10;;;;;;5050309;28;20454;-70
2022/05/24 11:47:05;;;;;;;9.63;8.60;;;33.60;70.20;;;;;;5050688;28;20465;-68
2022/05/24 11:50:06;;;;;;;10.30;7.30;;;33.70;69.10;;;;;;5050485;28;20496;-66
2022/05/24 11:53:03;;;;;;;13.37;8.33;;;33.90;69.30;;;;;;5050489;28;20863;-65
2022/05/24 11:56:18;;;;;;;9.30;8.10;;;34.10;68.40;;;;;;5050298;28;20961;-66
2022/05/24 11:58:52;;;;;;;17.20;8.23;;;34.40;68.40;;;;;;5049777;28;20450;-64
2022/05/24 12:01:50;;;;;;;9.57;7.87;;;34.50;66.30;;;;;;5050212;28;20466;-65
2022/05/24 12:10:42;;;;;;;10.20;8.00;;;34.10;65.20;;;;;;5050281;28;20472;-65
2022/05/24 12:13:33;;;;;;;10.70;8.20;;;34.30;65.40;;;;;;5049707;28;20878;-66
2022/05/24 12:16:02;;;;;;;13.27;9.87;;;34.50;64.20;;;;;;5049986;28;20442;-65
2022/05/24 12:18:52;;;;;;;8.80;7.70;;;34.70;63.70;;;;;;5049894;28;20453;-67
2022/05/24 12:21:42;;;;;;;13.43;8.30;;;34.60;64.00;;;;;;5050182;28;20462;-66
2022/05/24 12:24:48;;;;;;;11.00;8.00;;;34.50;65.60;;;;;;5049740;28;20453;-67
2022/05/24 12:27:56;;;;;;;12.23;8.40;;;34.70;65.30;;;;;;5050030;28;20457;-68
2022/05/24 12:30:36;;;;;;;15.80;8.37;;;34.90;64.20;;;;;;5049693;28;20511;-66
2022/05/24 12:33:14;;;;;;;13.03;8.33;;;35.10;63.30;;;;;;5049749;28;20952;-65
2022/05/24 12:35:53;;;;;;;11.97;8.37;;;35.40;63.80;;;;;;5049833;28;20480;-66
2022/05/24 12:38:25;;;;;;;12.53;8.77;;;35.60;63.30;;;;;;5049897;28;20845;-66
2022/05/24 12:41:07;;;;;;;9.90;7.80;;;35.80;62.90;;;;;;5049004;28;20450;-66
2022/05/24 12:43:36;;;;;;;14.83;8.43;;;36.00;59.90;;;;;;5049389;28;20926;-66
2022/05/24 12:46:05;;;;;;;14.47;9.20;;;35.90;59.60;;;;;;5049474;28;20450;-64
2022/05/24 12:48:35;;;;;;;12.00;7.60;;;35.90;59.80;;;;;;5049609;28;20512;-65
2022/05/24 12:51:07;;;;;;;9.27;7.57;;;36.30;59.90;;;;;;5049472;28;20969;-67
2022/05/24 12:53:35;;;;;;;10.00;8.67;;;36.30;59.30;;;;;;5049474;28;20811;-66
2022/05/24 12:56:08;;;;;;;12.40;8.40;;;36.30;58.70;;;;;;5049269;28;20449;-66
2022/05/24 12:58:37;;;;;;;9.37;7.60;;;36.30;58.90;;;;;;5049402;28;20469;-65
2022/05/24 13:01:19;;;;;;;10.57;8.10;;;36.40;58.90;;;;;;5049355;28;20974;-67
2022/05/24 13:03:51;;;;;;;9.60;8.07;;;36.30;57.80;;;;;;5049523;28;20453;-66
2022/05/24 13:06:23;;;;;;;12.20;8.30;;;36.20;58.00;;;;;;5049438;28;20485;-64
2022/05/24 13:09:23;;;;;;;12.43;8.97;;;36.00;59.60;;;;;;5049360;28;21004;-65
2022/05/24 13:11:54;;;;;;;10.30;8.00;;;36.00;58.90;;;;;;5053093;28;20885;-66
2022/05/24 13:14:43;;;;;;;11.50;8.30;;;35.70;60.20;;;;;;5053487;28;20453;-65
2022/05/24 13:17:14;;;;;;;12.07;8.60;;;35.50;59.30;;;;;;5053501;28;20457;-65
2022/05/24 13:19:47;;;;;;;10.20;9.07;;;35.30;59.20;;;;;;5053039;28;20446;-66
2022/05/24 13:22:15;;;;;;;12.73;7.97;;;35.20;60.60;;;;;;5053399;28;20481;-65
2022/05/24 13:24:55;;;;;;;14.67;8.70;;;35.20;60.20;;;;;;5053327;28;20453;-66
2022/05/24 13:27:22;;;;;;;11.77;8.97;;;35.20;59.00;;;;;;5053214;28;20536;-65
2022/05/24 13:35:46;;;;;;;9.17;8.00;;;35.00;62.20;;;;;;5028197;28;21024;-66
2022/05/24 13:38:13;;;;;;;9.20;8.07;;;35.20;61.20;;;;;;5053083;28;20472;-66
2022/05/24 13:40:51;;;;;;;10.50;8.07;;;35.40;59.90;;;;;;5052776;28;20950;-66
2022/05/24 13:43:32;;;;;;;9.30;8.20;;;35.20;58.60;;;;;;5052659;28;20519;-65
2022/05/24 13:46:19;;;;;;;10.77;8.30;;;34.80;58.80;;;;;;5052822;28;20450;-65
2022/05/24 13:48:55;;;;;;;9.87;8.10;;;34.50;60.40;;;;;;5052984;28;20492;-66
2022/05/24 13:51:28;;;;;;;11.27;7.83;;;34.40;61.40;;;;;;5052924;28;20484;-66
2022/05/24 13:53:56;;;;;;;13.03;8.30;;;34.30;60.70;;;;;;5053036;28;20537;-67
2022/05/24 13:56:26;;;;;;;13.40;9.10;;;34.20;61.20;;;;;;5052959;28;20848;-66